createdAt,value
2019-03-15T00:02:07.257Z,8.20
2019-03-15T00:04:35.074Z,8.73
2019-03-15T00:07:03.098Z,8.43
2019-03-15T00:09:30.881Z,10.40
2019-03-15T00:11:58.718Z,9.27
2019-03-15T00:14:26.814Z,10.70
2019-03-15T00:16:54.748Z,7.40
2019-03-15T00:19:22.533Z,9.53
2019-03-15T00:21:50.472Z,14.00
2019-03-15T00:24:19.223Z,10.00
2019-03-15T00:26:47.270Z,11.10
2019-03-15T00:29:15.083Z,10.77
2019-03-15T00:31:43.045Z,7.70
2019-03-15T00:34:10.862Z,15.20
2019-03-15T00:36:38.807Z,12.23
2019-03-15T00:39:08.591Z,11.97
2019-03-15T00:41:36.383Z,8.57
2019-03-15T00:44:04.189Z,7.40
2019-03-15T00:46:32.187Z,11.37
2019-03-15T00:49:00.002Z,12.77
2019-03-15T00:51:27.824Z,9.00
2019-03-15T00:53:55.838Z,10.03
2019-03-15T00:56:23.865Z,10.93
2019-03-15T00:58:53.129Z,13.10
2019-03-15T01:01:20.938Z,14.30
2019-03-15T01:03:48.945Z,13.73
2019-03-15T01:06:18.492Z,10.33
2019-03-15T01:08:46.521Z,12.13
2019-03-15T01:11:14.436Z,12.83
2019-03-15T01:13:42.277Z,12.30
2019-03-15T01:16:11.088Z,7.00
2019-03-15T01:18:38.884Z,15.87
2019-03-15T01:21:06.678Z,10.30
2019-03-15T01:23:34.671Z,8.07
2019-03-15T01:26:02.563Z,10.27
2019-03-15T01:28:30.348Z,15.13
2019-03-15T01:30:58.334Z,6.90
2019-03-15T01:33:26.368Z,11.17
2019-03-15T01:35:54.133Z,8.50
2019-03-15T01:38:21.898Z,17.40
2019-03-15T01:40:49.805Z,11.47
2019-03-15T01:43:17.626Z,11.27
2019-03-15T01:45:45.442Z,9.50
2019-03-15T01:48:13.592Z,15.10
2019-03-15T01:50:41.551Z,9.70
2019-03-15T01:53:09.714Z,11.90
2019-03-15T01:55:37.721Z,13.20
2019-03-15T01:58:05.519Z,9.00
2019-03-15T02:00:34.732Z,9.10
2019-03-15T02:03:03.164Z,16.40
2019-03-15T02:05:30.980Z,12.40
2019-03-15T02:08:00.685Z,16.03
2019-03-15T02:10:28.736Z,12.07
2019-03-15T02:12:56.827Z,11.77
2019-03-15T02:15:24.601Z,14.63
2019-03-15T02:17:53.613Z,13.30
2019-03-15T02:20:23.604Z,13.20
2019-03-15T02:22:51.639Z,17.33
2019-03-15T02:25:20.025Z,15.70
2019-03-15T02:27:47.963Z,15.17
2019-03-15T02:30:15.826Z,13.03
2019-03-15T02:32:43.766Z,12.17
2019-03-15T02:35:11.738Z,17.20
2019-03-15T02:37:39.724Z,19.87
2019-03-15T02:40:07.656Z,20.10
2019-03-15T02:42:35.828Z,9.67
2019-03-15T02:45:06.262Z,10.60
2019-03-15T02:47:34.326Z,11.90
2019-03-15T02:50:02.378Z,9.60
2019-03-15T02:52:30.636Z,12.53
2019-03-15T02:54:58.831Z,15.87
2019-03-15T02:57:26.933Z,15.97
2019-03-15T02:59:55.000Z,12.63
2019-03-15T03:02:23.986Z,12.23
2019-03-15T03:04:51.927Z,10.77
2019-03-15T03:07:21.055Z,14.70
2019-03-15T03:09:49.082Z,12.50
2019-03-15T03:12:17.588Z,15.40
2019-03-15T03:14:45.592Z,9.60
2019-03-15T03:17:13.852Z,12.13
2019-03-15T03:19:41.864Z,10.90
2019-03-15T03:22:09.785Z,16.53
2019-03-15T03:24:37.621Z,11.57
2019-03-15T03:27:05.630Z,10.40
2019-03-15T03:29:33.454Z,11.80
2019-03-15T03:32:01.260Z,13.83
2019-03-15T03:34:29.170Z,14.40
2019-03-15T03:36:57.897Z,13.80
2019-03-15T03:39:26.118Z,19.53
2019-03-15T03:41:54.113Z,19.77
2019-03-15T03:44:22.191Z,14.00
2019-03-15T03:46:49.972Z,13.37
2019-03-15T03:49:17.870Z,11.60
2019-03-15T03:51:45.651Z,16.47
2019-03-15T03:54:13.533Z,20.43
2019-03-15T03:56:41.323Z,14.77
2019-03-15T03:59:09.243Z,19.57
2019-03-15T04:01:37.007Z,15.93
2019-03-15T04:04:04.886Z,19.73
2019-03-15T04:06:32.667Z,17.10
2019-03-15T04:09:00.471Z,16.90
2019-03-15T04:11:28.356Z,19.73
2019-03-15T04:13:56.235Z,17.30
2019-03-15T04:16:24.027Z,16.17
2019-03-15T04:18:51.924Z,15.13
2019-03-15T04:21:19.698Z,20.77
2019-03-15T04:23:47.490Z,14.50
2019-03-15T04:26:15.517Z,18.07
2019-03-15T04:28:43.300Z,17.60
2019-03-15T04:31:12.301Z,16.53
2019-03-15T04:33:40.323Z,13.50
2019-03-15T04:36:11.958Z,21.87
2019-03-15T04:38:40.924Z,19.40
2019-03-15T04:41:08.950Z,12.20
2019-03-15T04:43:36.952Z,13.03
2019-03-15T04:46:04.755Z,19.77
2019-03-15T04:48:32.883Z,19.63
2019-03-15T04:51:02.667Z,20.37
2019-03-15T04:53:30.451Z,19.37
2019-03-15T04:55:58.415Z,13.63
2019-03-15T04:58:26.308Z,17.90
2019-03-15T05:00:54.456Z,15.60
2019-03-15T05:03:22.237Z,14.40
2019-03-15T05:06:02.374Z,16.33
2019-03-15T05:08:19.915Z,24.00
2019-03-15T05:10:47.712Z,14.40
2019-03-15T05:13:15.505Z,14.07
2019-03-15T05:15:43.559Z,16.97
2019-03-15T05:18:11.556Z,10.40
2019-03-15T05:20:39.341Z,18.30
2019-03-15T05:23:07.443Z,13.63
2019-03-15T05:25:35.277Z,15.73
2019-03-15T05:28:03.478Z,15.63
2019-03-15T05:30:31.368Z,12.60
2019-03-15T05:33:00.956Z,12.03
2019-03-15T05:35:28.739Z,20.30
2019-03-15T05:37:56.641Z,15.87
2019-03-15T05:40:24.447Z,11.00
2019-03-15T05:42:52.243Z,13.07
2019-03-15T05:45:20.131Z,16.23
2019-03-15T05:47:48.057Z,20.40
2019-03-15T05:50:15.964Z,16.57
2019-03-15T05:52:44.054Z,18.27
2019-03-15T05:55:11.969Z,16.97
2019-03-15T05:57:39.771Z,22.80
2019-03-15T06:00:10.492Z,13.97
2019-03-15T06:02:38.504Z,24.50
2019-03-15T06:05:08.818Z,19.07
2019-03-15T06:07:37.967Z,17.37
2019-03-15T06:10:07.083Z,29.20
2019-03-15T06:12:34.896Z,24.03
2019-03-15T06:15:02.783Z,30.37
2019-03-15T06:17:30.599Z,32.13
2019-03-15T06:19:58.508Z,28.93
2019-03-15T06:22:26.597Z,34.30
2019-03-15T06:24:54.388Z,30.80
2019-03-15T06:27:22.194Z,29.93
2019-03-15T06:29:50.205Z,36.97
2019-03-15T06:32:18.033Z,31.07
2019-03-15T06:34:45.952Z,32.27
2019-03-15T06:37:13.766Z,32.00
2019-03-15T06:39:41.582Z,39.80
2019-03-15T06:42:09.560Z,30.47
2019-03-15T06:44:37.878Z,32.97
2019-03-15T06:47:06.030Z,27.90
2019-03-15T06:49:33.844Z,33.87
2019-03-15T06:52:01.862Z,30.10
2019-03-15T06:54:29.656Z,30.90
2019-03-15T06:56:57.482Z,35.17
2019-03-15T06:59:25.489Z,30.23
2019-03-15T07:01:53.301Z,26.60
2019-03-15T07:04:21.297Z,35.03
2019-03-15T07:06:50.188Z,31.77
2019-03-15T07:09:18.038Z,29.90
2019-03-15T07:11:46.160Z,26.73
2019-03-15T07:14:16.055Z,27.90
2019-03-15T07:16:44.268Z,31.20
2019-03-15T07:19:25.268Z,30.90
2019-03-15T07:21:42.016Z,28.33
2019-03-15T07:24:09.917Z,23.23
2019-03-15T07:26:37.865Z,19.37
2019-03-15T07:29:06.999Z,18.70
2019-03-15T07:31:34.858Z,17.73
2019-03-15T07:34:02.681Z,13.43
2019-03-15T07:36:31.747Z,23.93
2019-03-15T07:38:59.612Z,14.10
2019-03-15T07:41:27.407Z,16.57
2019-03-15T07:43:55.371Z,14.67
2019-03-15T07:46:23.215Z,17.50
2019-03-15T07:48:51.000Z,19.33
2019-03-15T07:51:18.943Z,18.60
2019-03-15T07:53:46.781Z,21.40
2019-03-15T07:56:14.570Z,14.90
2019-03-15T07:58:43.404Z,17.63
2019-03-15T08:01:12.638Z,22.53
2019-03-15T08:03:40.557Z,26.53
2019-03-15T08:06:08.520Z,20.47
2019-03-15T08:08:36.415Z,18.20
2019-03-15T08:11:04.497Z,18.10
2019-03-15T08:13:32.457Z,21.23
2019-03-15T08:16:00.584Z,17.60
2019-03-15T08:18:28.434Z,22.23
2019-03-15T08:20:56.252Z,30.40
2019-03-15T08:23:24.205Z,19.80
2019-03-15T08:25:52.092Z,24.37
2019-03-15T08:28:19.888Z,21.77
2019-03-15T08:30:47.781Z,20.83
2019-03-15T08:33:15.712Z,22.70
2019-03-15T08:35:43.511Z,17.67
2019-03-15T08:38:11.361Z,12.03
2019-03-15T08:40:39.294Z,21.30
2019-03-15T08:43:09.026Z,15.90
2019-03-15T08:45:36.810Z,20.27
2019-03-15T08:48:04.764Z,20.37
2019-03-15T08:50:32.574Z,19.33
2019-03-15T08:53:00.351Z,15.70
2019-03-15T08:55:28.340Z,16.80
2019-03-15T08:57:56.184Z,16.77
2019-03-15T09:00:23.987Z,17.03
2019-03-15T09:02:51.927Z,14.97
2019-03-15T09:05:19.779Z,22.73
2019-03-15T09:07:47.689Z,19.30
2019-03-15T09:10:23.292Z,16.43
2019-03-15T09:12:45.423Z,17.80
2019-03-15T09:15:13.838Z,16.23
2019-03-15T09:17:48.294Z,17.53
2019-03-15T09:20:16.155Z,18.23
2019-03-15T09:22:43.987Z,27.30
2019-03-15T09:25:19.198Z,22.67
2019-03-15T09:27:45.294Z,18.67
2019-03-15T09:30:22.661Z,15.93
2019-03-15T09:32:41.667Z,18.73
2019-03-15T09:35:09.471Z,18.97
2019-03-15T09:37:37.346Z,18.47
2019-03-15T09:40:05.764Z,21.10
2019-03-15T09:42:33.561Z,24.17
2019-03-15T09:45:01.596Z,16.10
2019-03-15T09:47:29.438Z,19.07
2019-03-15T09:49:57.235Z,16.70
2019-03-15T09:52:25.190Z,15.37
2019-03-15T09:54:52.967Z,13.60
2019-03-15T09:57:20.855Z,15.93
2019-03-15T09:59:48.857Z,17.00
2019-03-15T10:02:29.356Z,15.60
2019-03-15T10:04:46.448Z,18.67
2019-03-15T10:07:14.511Z,24.07
2019-03-15T10:09:46.044Z,19.57
2019-03-15T10:12:12.157Z,17.33
2019-03-15T10:14:40.055Z,22.27
2019-03-15T10:17:07.873Z,15.90
2019-03-15T10:19:35.704Z,17.20
2019-03-15T10:22:03.625Z,23.60
2019-03-15T10:24:31.432Z,21.77
2019-03-15T10:26:59.285Z,19.40
2019-03-15T10:29:27.285Z,17.27
2019-03-15T10:31:55.178Z,19.53
2019-03-15T10:34:23.108Z,16.63
2019-03-15T10:36:51.002Z,18.00
2019-03-15T10:39:18.898Z,16.90
2019-03-15T10:41:46.699Z,22.03
2019-03-15T10:44:14.581Z,17.10
2019-03-15T10:46:42.359Z,22.00
2019-03-15T10:49:10.142Z,21.37
2019-03-15T10:51:38.043Z,19.80
2019-03-15T10:54:05.988Z,17.37
2019-03-15T10:56:33.891Z,19.83
2019-03-15T10:59:01.694Z,20.97
2019-03-15T11:01:29.607Z,17.17
2019-03-15T11:03:57.657Z,19.33
2019-03-15T11:06:25.472Z,16.97
2019-03-15T11:08:53.493Z,19.77
2019-03-15T11:11:21.460Z,16.37
2019-03-15T11:13:49.317Z,17.87
2019-03-15T11:16:17.241Z,18.30
2019-03-15T11:18:45.218Z,13.63
2019-03-15T11:21:13.014Z,12.97
2019-03-15T11:23:40.900Z,17.67
2019-03-15T11:26:14.015Z,14.50
2019-03-15T11:28:38.646Z,12.10
2019-03-15T11:31:06.646Z,20.70
2019-03-15T11:33:34.589Z,12.30
2019-03-15T11:36:02.498Z,11.30
2019-03-15T11:38:30.337Z,21.33
2019-03-15T11:40:58.308Z,19.47
2019-03-15T11:43:26.092Z,16.40
2019-03-15T11:45:53.907Z,15.33
2019-03-15T11:48:22.030Z,13.40
2019-03-15T11:50:50.002Z,15.40
2019-03-15T11:53:18.999Z,14.10
2019-03-15T11:55:46.995Z,14.87
2019-03-15T11:58:14.948Z,13.70
2019-03-15T12:00:42.775Z,14.33
2019-03-15T12:03:11.914Z,13.87
2019-03-15T12:05:39.729Z,10.60
2019-03-15T12:08:07.805Z,10.10
2019-03-15T12:10:35.726Z,12.80
2019-03-15T12:13:03.578Z,13.10
2019-03-15T12:15:31.386Z,11.47
2019-03-15T12:18:01.179Z,13.27
2019-03-15T12:20:29.005Z,9.57
2019-03-15T12:22:57.015Z,11.30
2019-03-15T12:25:26.921Z,10.10
2019-03-15T12:27:56.653Z,10.33
2019-03-15T12:30:24.644Z,6.03
2019-03-15T12:32:52.504Z,8.03
2019-03-15T12:35:20.430Z,5.30
2019-03-15T12:37:48.260Z,14.13
2019-03-15T12:40:16.302Z,9.87
2019-03-15T12:42:44.251Z,9.33
2019-03-15T12:45:12.167Z,7.73
2019-03-15T12:47:39.988Z,8.60
2019-03-15T12:50:08.249Z,11.00
2019-03-15T12:52:47.177Z,8.07
2019-03-15T12:55:07.151Z,7.93
2019-03-15T12:57:35.139Z,9.50
2019-03-15T13:00:04.078Z,9.07
2019-03-15T13:02:32.084Z,13.03
2019-03-15T13:05:00.010Z,8.80
2019-03-15T13:07:28.033Z,8.70
2019-03-15T13:09:55.976Z,8.47
2019-03-15T13:12:23.781Z,10.00
2019-03-15T13:14:51.617Z,10.43
2019-03-15T13:17:19.610Z,9.80
2019-03-15T13:19:55.175Z,9.90
2019-03-15T13:22:18.370Z,11.97
2019-03-15T13:24:46.446Z,8.97
2019-03-15T13:27:14.570Z,8.30
2019-03-15T13:29:42.372Z,9.10
2019-03-15T13:32:11.290Z,8.10
2019-03-15T13:34:39.329Z,11.40
2019-03-15T13:37:07.239Z,10.77
2019-03-15T13:39:35.037Z,10.60
2019-03-15T13:42:03.036Z,11.93
2019-03-15T13:44:30.853Z,11.00
2019-03-15T13:46:58.693Z,8.40
2019-03-15T13:49:26.695Z,9.07
2019-03-15T13:51:54.544Z,12.67
2019-03-15T13:54:22.353Z,10.43
2019-03-15T13:56:50.319Z,12.90
2019-03-15T13:59:18.161Z,13.53
2019-03-15T14:01:45.995Z,14.00
2019-03-15T14:04:13.977Z,11.60
2019-03-15T14:06:41.959Z,11.17
2019-03-15T14:09:09.777Z,11.23
2019-03-15T14:11:38.720Z,9.13
2019-03-15T14:14:06.802Z,10.60
2019-03-15T14:16:34.646Z,12.67
2019-03-15T14:19:02.480Z,12.20
2019-03-15T14:21:31.372Z,13.77
2019-03-15T14:23:59.298Z,18.90
2019-03-15T14:26:27.118Z,13.10
2019-03-15T14:28:55.253Z,15.07
2019-03-15T14:31:23.100Z,18.00
2019-03-15T14:33:51.201Z,15.53
2019-03-15T14:36:19.171Z,13.00
2019-03-15T14:38:47.140Z,18.93
2019-03-15T14:41:15.065Z,17.70
2019-03-15T14:43:43.168Z,21.00
2019-03-15T14:46:12.263Z,16.87
2019-03-15T14:48:40.571Z,19.40
2019-03-15T14:51:08.370Z,16.03
2019-03-15T14:53:36.286Z,20.97
2019-03-15T14:56:04.119Z,22.77
2019-03-15T14:58:31.912Z,18.47
2019-03-15T15:00:59.934Z,28.60
2019-03-15T15:03:29.753Z,24.63
2019-03-15T15:05:57.710Z,28.83
2019-03-15T15:08:26.923Z,28.03
2019-03-15T15:10:54.869Z,20.87
2019-03-15T15:13:22.814Z,25.00
2019-03-15T15:15:50.853Z,27.17
2019-03-15T15:18:18.959Z,24.03
2019-03-15T15:20:46.775Z,17.77
2019-03-15T15:23:14.779Z,20.47
2019-03-15T15:25:42.694Z,30.00
2019-03-15T15:28:10.762Z,33.43
2019-03-15T15:30:38.579Z,33.60
2019-03-15T15:33:06.560Z,28.00
2019-03-15T15:35:34.646Z,21.63
2019-03-15T15:38:02.459Z,32.17
2019-03-15T15:40:30.435Z,33.70
2019-03-15T15:42:58.453Z,34.70
2019-03-15T15:45:29.617Z,26.40
2019-03-15T15:47:56.067Z,29.23
2019-03-15T15:50:24.006Z,26.80
2019-03-15T15:52:51.889Z,19.47
2019-03-15T15:55:19.797Z,26.37
2019-03-15T15:57:47.743Z,25.27
2019-03-15T16:00:15.596Z,29.73
2019-03-15T16:02:43.463Z,35.43
2019-03-15T16:05:11.693Z,27.93
2019-03-15T16:07:40.609Z,34.73
2019-03-15T16:10:09.806Z,34.13
2019-03-15T16:12:37.817Z,36.57
2019-03-15T16:15:07.236Z,30.17
2019-03-15T16:17:35.033Z,31.57
2019-03-15T16:20:03.799Z,25.40
2019-03-15T16:22:31.688Z,31.57
2019-03-15T16:24:59.589Z,42.03
2019-03-15T16:27:27.421Z,37.97
2019-03-15T16:29:55.489Z,25.63
2019-03-15T16:32:23.423Z,28.53
2019-03-15T16:34:51.297Z,29.97
2019-03-15T16:37:19.392Z,25.33
2019-03-15T16:39:47.424Z,33.20
2019-03-15T16:42:15.382Z,38.17
2019-03-15T16:44:43.271Z,24.17
2019-03-15T16:47:11.208Z,36.30
2019-03-15T16:49:39.130Z,19.63
2019-03-15T16:52:06.955Z,25.47
2019-03-15T16:54:34.906Z,24.10
2019-03-15T16:57:02.806Z,21.60
2019-03-15T16:59:30.740Z,22.93
2019-03-15T17:02:00.009Z,23.63
2019-03-15T17:04:27.858Z,16.17
2019-03-15T17:06:55.901Z,24.13
2019-03-15T17:09:23.730Z,18.77
2019-03-15T17:11:51.710Z,30.90
2019-03-15T17:14:25.471Z,20.80
2019-03-15T17:16:49.583Z,19.50
2019-03-15T17:19:17.402Z,26.00
2019-03-15T17:21:45.355Z,20.67
2019-03-15T17:24:13.370Z,21.93
2019-03-15T17:26:41.289Z,28.73
2019-03-15T17:29:09.079Z,19.73
2019-03-15T17:31:36.992Z,19.40
2019-03-15T17:34:05.167Z,16.80
2019-03-15T17:36:33.112Z,21.33
2019-03-15T17:39:01.036Z,15.53
2019-03-15T17:41:29.025Z,15.57
2019-03-15T17:43:58.643Z,17.43
2019-03-15T17:46:26.743Z,16.47
2019-03-15T17:48:54.580Z,24.70
2019-03-15T17:51:22.412Z,19.27
2019-03-15T17:53:50.376Z,23.27
2019-03-15T17:56:18.355Z,21.20
2019-03-15T17:58:48.746Z,15.90
2019-03-15T18:01:17.746Z,24.43
2019-03-15T18:03:47.484Z,25.63
2019-03-15T18:06:15.904Z,21.53
2019-03-15T18:08:44.139Z,22.73
2019-03-15T18:11:12.036Z,20.23
2019-03-15T18:13:40.114Z,23.57
2019-03-15T18:16:08.334Z,20.63
2019-03-15T18:18:36.339Z,27.53
2019-03-15T18:21:04.122Z,29.87
2019-03-15T18:23:31.945Z,24.70
2019-03-15T18:25:59.970Z,22.83
2019-03-15T18:28:29.841Z,27.03
2019-03-15T18:30:59.190Z,25.10
2019-03-15T18:33:27.559Z,26.17
2019-03-15T18:35:55.658Z,17.53
2019-03-15T18:38:23.902Z,24.27
2019-03-15T18:40:52.359Z,28.83
2019-03-15T18:43:20.377Z,30.70
2019-03-15T18:45:48.201Z,21.30
2019-03-15T18:48:16.039Z,17.90
2019-03-15T18:50:43.986Z,21.07
2019-03-15T18:53:12.495Z,28.97
2019-03-15T18:55:40.317Z,31.80
2019-03-15T18:58:08.296Z,22.80
2019-03-15T19:00:36.297Z,31.13
2019-03-15T19:03:04.262Z,27.77
2019-03-15T19:05:32.273Z,24.23
2019-03-15T19:08:00.455Z,37.60
2019-03-15T19:10:28.460Z,26.40
2019-03-15T19:12:59.208Z,23.70
2019-03-15T19:15:27.106Z,25.83
2019-03-15T19:17:55.200Z,30.20
2019-03-15T19:20:24.306Z,34.13
2019-03-15T19:22:52.148Z,25.47
2019-03-15T19:25:20.314Z,31.83
2019-03-15T19:27:48.837Z,33.47
2019-03-15T19:30:16.810Z,20.57
2019-03-15T19:32:44.642Z,29.97
2019-03-15T19:35:12.624Z,27.10
2019-03-15T19:37:40.609Z,21.43
2019-03-15T19:40:11.075Z,25.73
2019-03-15T19:42:45.887Z,20.80
2019-03-15T19:45:14.379Z,38.77
2019-03-15T19:47:42.338Z,24.97
2019-03-15T19:50:12.608Z,23.83
2019-03-15T19:52:40.604Z,27.53
2019-03-15T19:55:10.204Z,34.17
2019-03-15T19:57:38.048Z,26.63
2019-03-15T20:00:08.884Z,24.53
2019-03-15T20:02:36.726Z,16.73
2019-03-15T20:05:05.222Z,31.17
2019-03-15T20:07:33.294Z,30.07
2019-03-15T20:10:01.461Z,30.17
2019-03-15T20:12:29.320Z,28.40
2019-03-15T20:14:58.841Z,23.03
2019-03-15T20:17:27.029Z,27.80
2019-03-15T20:19:55.098Z,27.37
2019-03-15T20:22:23.412Z,22.90
2019-03-15T20:24:51.445Z,28.60
2019-03-15T20:27:20.731Z,36.70
2019-03-15T20:29:48.706Z,27.63
2019-03-15T20:32:16.838Z,23.83
2019-03-15T20:34:45.954Z,21.53
2019-03-15T20:37:14.585Z,25.47
2019-03-15T20:39:42.677Z,28.37
2019-03-15T20:42:10.968Z,33.50
2019-03-15T20:44:39.442Z,35.43
2019-03-15T20:47:07.332Z,31.10
2019-03-15T20:49:36.590Z,38.40
2019-03-15T20:52:08.391Z,31.83
2019-03-15T20:54:36.294Z,40.00
2019-03-15T20:57:04.437Z,42.27
2019-03-15T20:59:32.562Z,41.77
2019-03-15T21:02:03.265Z,27.80
2019-03-15T21:04:31.284Z,33.60
2019-03-15T21:06:59.150Z,44.77
2019-03-15T21:09:27.903Z,25.97
2019-03-15T21:11:56.263Z,27.83
2019-03-15T21:14:24.572Z,35.20
2019-03-15T21:16:52.430Z,30.03
2019-03-15T21:19:20.631Z,42.87
2019-03-15T21:21:49.882Z,32.40
2019-03-15T21:24:17.825Z,38.43
2019-03-15T21:26:45.844Z,24.40
2019-03-15T21:29:13.781Z,25.73
2019-03-15T21:31:41.743Z,24.53
2019-03-15T21:34:09.763Z,29.43
2019-03-15T21:36:37.578Z,32.47
2019-03-15T21:39:07.645Z,26.60
2019-03-15T21:41:35.513Z,43.37
2019-03-15T21:44:03.347Z,32.83
2019-03-15T21:46:31.271Z,37.83
2019-03-15T21:48:59.155Z,28.10
2019-03-15T21:51:29.252Z,24.93
2019-03-15T21:53:57.117Z,20.73
2019-03-15T21:56:25.046Z,20.37
2019-03-15T21:58:52.909Z,16.40
2019-03-15T22:01:20.873Z,23.03
2019-03-15T22:03:50.297Z,17.93
2019-03-15T22:06:18.132Z,15.57
2019-03-15T22:08:46.113Z,15.60
2019-03-15T22:11:21.113Z,11.17
2019-03-15T22:13:43.714Z,13.50
2019-03-15T22:16:11.807Z,21.73
2019-03-15T22:18:39.678Z,7.73
2019-03-15T22:21:07.485Z,13.87
2019-03-15T22:23:35.431Z,12.87
2019-03-15T22:26:03.278Z,12.77
2019-03-15T22:28:31.370Z,9.20
2019-03-15T22:30:59.350Z,12.97
2019-03-15T22:33:27.289Z,12.30
2019-03-15T22:35:55.133Z,11.17
2019-03-15T22:38:26.502Z,15.37
2019-03-15T22:40:53.086Z,13.60
2019-03-15T22:43:21.329Z,15.20
2019-03-15T22:45:49.220Z,7.80
2019-03-15T22:48:17.260Z,7.03
2019-03-15T22:50:46.440Z,10.20
2019-03-15T22:53:14.479Z,9.17
2019-03-15T22:55:42.427Z,9.17
2019-03-15T22:58:10.618Z,12.83
2019-03-15T23:00:40.108Z,9.27
2019-03-15T23:03:08.725Z,10.93
2019-03-15T23:05:36.764Z,14.10
2019-03-15T23:08:05.895Z,9.97
2019-03-15T23:10:35.256Z,8.03
2019-03-15T23:13:04.586Z,9.27
2019-03-15T23:15:32.452Z,7.27
2019-03-15T23:18:00.299Z,9.60
2019-03-15T23:20:28.322Z,14.20
2019-03-15T23:22:56.188Z,9.63
2019-03-15T23:25:24.713Z,8.50
2019-03-15T23:27:54.055Z,8.93
2019-03-15T23:30:23.709Z,12.83
2019-03-15T23:32:53.163Z,10.50
2019-03-15T23:35:21.141Z,12.80
2019-03-15T23:37:49.031Z,7.10
2019-03-15T23:40:16.867Z,14.20
2019-03-15T23:42:45.267Z,9.23
2019-03-15T23:45:13.109Z,9.43
2019-03-15T23:47:41.223Z,14.80
2019-03-15T23:50:09.333Z,10.83
2019-03-15T23:52:37.158Z,14.10
2019-03-15T23:55:05.787Z,9.77
2019-03-15T23:57:33.587Z,7.53
